createdAt,value
2018-02-16T00:01:37.681Z,91.96
2018-02-16T00:04:05.437Z,92.12
2018-02-16T00:06:33.130Z,91.96
2018-02-16T00:09:00.885Z,91.42
2018-02-16T00:11:28.634Z,91.08
2018-02-16T00:13:56.663Z,90.69
2018-02-16T00:16:24.400Z,90.76
2018-02-16T00:18:52.178Z,90.84
2018-02-16T00:21:19.910Z,90.49
2018-02-16T00:23:47.714Z,90.18
2018-02-16T00:26:15.538Z,90.13
2018-02-16T00:28:43.334Z,89.70
2018-02-16T00:31:11.101Z,89.47
2018-02-16T00:33:38.889Z,89.77
2018-02-16T00:36:06.589Z,89.94
2018-02-16T00:38:34.352Z,89.48
2018-02-16T00:41:02.098Z,89.52
2018-02-16T00:43:29.845Z,90.32
2018-02-16T00:45:57.568Z,90.56
2018-02-16T00:48:25.410Z,91.03
2018-02-16T00:50:53.098Z,91.57
2018-02-16T00:53:20.862Z,92.25
2018-02-16T00:55:48.562Z,92.20
2018-02-16T00:58:16.321Z,91.47
2018-02-16T01:00:44.084Z,90.28
2018-02-16T01:03:11.840Z,91.39
2018-02-16T01:05:39.588Z,92.47
2018-02-16T01:08:07.410Z,92.23
2018-02-16T01:10:35.186Z,91.51
2018-02-16T01:13:03.075Z,91.17
2018-02-16T01:15:30.740Z,91.83
2018-02-16T01:17:58.517Z,91.86
2018-02-16T01:20:26.249Z,92.35
2018-02-16T01:22:53.978Z,92.08
2018-02-16T01:25:21.679Z,90.68
2018-02-16T01:27:49.355Z,90.19
2018-02-16T01:30:17.090Z,90.17
2018-02-16T01:32:44.861Z,91.00
2018-02-16T01:35:12.527Z,91.41
2018-02-16T01:37:40.242Z,91.12
2018-02-16T01:40:07.968Z,91.53
2018-02-16T01:42:35.817Z,91.29
2018-02-16T01:45:03.551Z,90.70
2018-02-16T01:47:31.273Z,90.14
2018-02-16T01:50:06.051Z,91.13
2018-02-16T01:52:34.559Z,91.02
2018-02-16T01:55:02.539Z,91.11
2018-02-16T01:57:30.450Z,91.55
2018-02-16T01:59:58.366Z,91.92
2018-02-16T02:02:26.030Z,92.02
2018-02-16T02:04:53.774Z,91.57
2018-02-16T02:07:21.434Z,92.11
2018-02-16T02:09:49.188Z,92.32
2018-02-16T02:12:16.894Z,91.78
2018-02-16T02:14:44.602Z,91.56
2018-02-16T02:17:12.274Z,91.76
2018-02-16T02:19:40.032Z,91.89
2018-02-16T02:22:07.725Z,91.16
2018-02-16T02:24:35.443Z,90.80
2018-02-16T02:27:03.165Z,91.62
2018-02-16T02:29:30.896Z,91.73
2018-02-16T02:31:58.563Z,91.21
2018-02-16T02:34:26.299Z,90.30
2018-02-16T02:36:54.026Z,90.44
2018-02-16T02:39:21.692Z,89.93
2018-02-16T02:41:49.402Z,90.39
2018-02-16T02:44:17.120Z,90.89
2018-02-16T02:46:44.837Z,90.97
2018-02-16T02:49:12.602Z,90.77
2018-02-16T02:51:40.348Z,91.55
2018-02-16T02:54:08.098Z,91.10
2018-02-16T02:56:36.028Z,90.95
2018-02-16T02:59:03.786Z,90.85
2018-02-16T03:01:31.446Z,90.62
2018-02-16T03:03:59.197Z,90.82
2018-02-16T03:06:32.947Z,90.67
2018-02-16T03:09:00.706Z,90.24
2018-02-16T03:11:28.371Z,90.64
2018-02-16T03:13:56.114Z,90.84
2018-02-16T03:16:23.790Z,91.87
2018-02-16T03:18:51.535Z,91.28
2018-02-16T03:21:19.253Z,91.02
2018-02-16T03:23:47.177Z,91.60
2018-02-16T03:26:14.917Z,91.61
2018-02-16T03:28:42.713Z,91.30
2018-02-16T03:31:10.472Z,90.88
2018-02-16T03:33:38.303Z,91.48
2018-02-16T03:36:06.140Z,91.11
2018-02-16T03:38:33.917Z,90.94
2018-02-16T03:41:01.741Z,91.71
2018-02-16T03:43:29.514Z,92.65
2018-02-16T03:45:58.072Z,93.18
2018-02-16T03:48:26.141Z,93.00
2018-02-16T03:50:54.230Z,93.07
2018-02-16T03:53:22.297Z,93.12
2018-02-16T03:55:50.240Z,93.39
2018-02-16T03:58:18.237Z,93.98
2018-02-16T04:00:45.928Z,94.19
2018-02-16T04:03:13.669Z,94.23
2018-02-16T04:05:41.398Z,93.71
2018-02-16T04:08:09.079Z,93.56
2018-02-16T04:10:36.888Z,93.67
2018-02-16T04:13:04.564Z,93.73
2018-02-16T04:15:32.266Z,93.57
2018-02-16T04:17:59.968Z,93.19
2018-02-16T04:20:27.733Z,92.86
2018-02-16T04:22:55.398Z,92.34
2018-02-16T04:25:23.148Z,92.09
2018-02-16T04:27:50.810Z,91.96
2018-02-16T04:30:18.667Z,92.06
2018-02-16T04:32:46.432Z,91.91
2018-02-16T04:35:14.107Z,91.60
2018-02-16T04:37:41.996Z,91.69
2018-02-16T04:40:09.733Z,92.27
2018-02-16T04:42:37.407Z,93.25
2018-02-16T04:45:05.152Z,93.38
2018-02-16T04:47:32.839Z,93.27
2018-02-16T04:50:00.569Z,93.39
2018-02-16T04:52:28.269Z,92.85
2018-02-16T04:54:56.000Z,92.55
2018-02-16T04:57:23.744Z,92.29
2018-02-16T04:59:51.478Z,92.11
2018-02-16T05:02:19.229Z,92.19
2018-02-16T05:04:46.936Z,92.55
2018-02-16T05:07:14.665Z,93.34
2018-02-16T05:09:42.385Z,92.88
2018-02-16T05:12:10.078Z,92.27
2018-02-16T05:14:37.802Z,92.08
2018-02-16T05:17:05.491Z,92.80
2018-02-16T05:19:33.212Z,93.08
2018-02-16T05:22:00.894Z,92.82
2018-02-16T05:24:28.745Z,92.93
2018-02-16T05:26:56.476Z,92.78
2018-02-16T05:29:24.169Z,92.44
2018-02-16T05:31:51.947Z,92.05
2018-02-16T05:34:19.611Z,92.78
2018-02-16T05:36:47.333Z,93.51
2018-02-16T05:39:15.011Z,93.38
2018-02-16T05:41:42.774Z,92.95
2018-02-16T05:44:10.491Z,93.35
2018-02-16T05:46:38.209Z,93.23
2018-02-16T05:49:05.961Z,92.28
2018-02-16T05:51:33.680Z,91.77
2018-02-16T05:54:01.405Z,91.59
2018-02-16T05:56:29.080Z,91.44
2018-02-16T05:58:56.812Z,91.21
2018-02-16T06:01:24.607Z,90.98
2018-02-16T06:03:52.272Z,90.65
2018-02-16T06:06:20.072Z,90.78
2018-02-16T06:08:47.835Z,91.57
2018-02-16T06:11:15.591Z,92.67
2018-02-16T06:13:43.317Z,92.80
2018-02-16T06:16:11.051Z,93.15
2018-02-16T06:18:38.811Z,92.91
2018-02-16T06:21:06.534Z,92.92
2018-02-16T06:23:34.218Z,92.35
2018-02-16T06:26:01.992Z,91.96
2018-02-16T06:28:29.790Z,92.49
2018-02-16T06:30:57.568Z,93.75
2018-02-16T06:33:25.312Z,94.01
2018-02-16T06:35:53.000Z,93.79
2018-02-16T06:38:20.662Z,93.67
2018-02-16T06:40:48.523Z,92.90
2018-02-16T06:43:16.228Z,91.78
2018-02-16T06:45:43.948Z,91.38
2018-02-16T06:48:11.614Z,91.83
2018-02-16T06:50:39.351Z,92.52
2018-02-16T06:53:07.114Z,92.67
2018-02-16T06:55:34.857Z,92.42
2018-02-16T06:58:02.631Z,91.98
2018-02-16T07:00:30.413Z,92.06
2018-02-16T07:02:58.243Z,92.01
2018-02-16T07:07:59.913Z,91.69
2018-02-16T07:10:27.628Z,91.17
2018-02-16T07:12:55.744Z,90.80
2018-02-16T07:15:23.817Z,90.60
2018-02-16T07:17:51.853Z,90.67
2018-02-16T07:20:22.646Z,91.01
2018-02-16T07:22:50.401Z,90.99
2018-02-16T07:25:18.102Z,91.37
2018-02-16T07:27:46.370Z,91.52
2018-02-16T07:30:14.143Z,91.42
2018-02-16T07:32:41.821Z,91.70
2018-02-16T07:35:09.570Z,91.96
2018-02-16T07:37:37.345Z,91.82
2018-02-16T07:40:05.047Z,91.37
2018-02-16T07:42:32.999Z,90.69
2018-02-16T07:45:00.891Z,90.22
2018-02-16T07:47:28.661Z,90.20
2018-02-16T07:49:56.824Z,90.55
2018-02-16T07:52:24.766Z,90.54
2018-02-16T07:54:52.629Z,90.53
2018-02-16T07:57:20.605Z,91.15
2018-02-16T07:59:48.599Z,91.37
2018-02-16T08:02:16.672Z,90.87
2018-02-16T08:04:44.678Z,89.99
2018-02-16T08:07:12.518Z,89.56
2018-02-16T08:09:40.385Z,89.39
2018-02-16T08:12:08.144Z,88.30
2018-02-16T08:14:37.031Z,88.50
2018-02-16T08:17:05.061Z,89.24
2018-02-16T08:19:32.816Z,88.87
2018-02-16T08:22:00.505Z,88.81
2018-02-16T08:24:28.858Z,88.82
2018-02-16T08:26:56.602Z,88.89
2018-02-16T08:29:24.333Z,88.72
2018-02-16T08:31:52.408Z,88.57
2018-02-16T08:34:20.404Z,88.64
2018-02-16T08:36:48.546Z,88.99
2018-02-16T08:39:16.612Z,88.94
2018-02-16T08:41:44.554Z,89.35
2018-02-16T08:44:12.568Z,88.41
2018-02-16T08:46:40.444Z,87.17
2018-02-16T08:49:08.504Z,86.12
2018-02-16T08:51:36.577Z,86.47
2018-02-16T08:54:04.653Z,85.72
2018-02-16T08:56:32.819Z,86.12
2018-02-16T08:59:00.696Z,86.24
2018-02-16T09:01:28.966Z,86.93
2018-02-16T09:03:56.858Z,87.45
2018-02-16T09:06:24.643Z,87.76
2018-02-16T09:08:54.572Z,86.87
2018-02-16T09:11:22.587Z,86.80
2018-02-16T09:13:52.192Z,88.52
2018-02-16T09:16:20.162Z,87.94
2018-02-16T09:18:48.161Z,87.95
2018-02-16T09:21:16.204Z,88.24
2018-02-16T09:23:45.208Z,88.06
2018-02-16T09:26:13.068Z,88.58
2018-02-16T09:28:40.934Z,87.63
2018-02-16T09:31:09.069Z,87.07
2018-02-16T09:33:37.436Z,86.01
2018-02-16T09:36:07.645Z,87.03
2018-02-16T09:38:35.870Z,87.49
2018-02-16T09:41:03.863Z,88.15
2018-02-16T09:43:31.902Z,87.58
2018-02-16T09:45:59.852Z,87.36
2018-02-16T09:48:27.937Z,86.66
2018-02-16T09:50:56.853Z,86.58
2018-02-16T09:53:24.875Z,86.10
2018-02-16T09:55:52.761Z,85.64
2018-02-16T09:58:20.853Z,85.38
2018-02-16T10:00:49.134Z,85.15
2018-02-16T10:03:17.101Z,85.18
2018-02-16T10:05:45.172Z,85.08
2018-02-16T10:08:13.101Z,85.09
2018-02-16T10:10:40.967Z,84.96
2018-02-16T10:13:09.016Z,86.06
2018-02-16T10:15:36.864Z,86.02
2018-02-16T10:18:04.917Z,86.84
2018-02-16T10:20:32.790Z,86.11
2018-02-16T10:23:00.704Z,85.54
2018-02-16T10:25:28.593Z,85.44
2018-02-16T10:27:57.213Z,86.90
2018-02-16T10:30:25.277Z,87.24
2018-02-16T10:32:53.373Z,87.57
2018-02-16T10:35:21.207Z,87.74
2018-02-16T10:37:49.086Z,87.88
2018-02-16T10:40:18.177Z,87.76
2018-02-16T10:42:46.251Z,88.30
2018-02-16T10:45:14.426Z,86.04
2018-02-16T10:47:42.470Z,84.66
2018-02-16T10:50:11.165Z,83.33
2018-02-16T10:52:39.455Z,82.24
2018-02-16T10:55:07.301Z,81.48
2018-02-16T10:57:35.463Z,82.40
2018-02-16T11:00:03.442Z,81.22
2018-02-16T11:02:37.173Z,79.89
2018-02-16T11:05:10.499Z,79.58
2018-02-16T11:07:44.179Z,79.48
2018-02-16T11:10:12.225Z,79.63
2018-02-16T11:12:40.321Z,79.72
2018-02-16T11:15:08.391Z,78.99
2018-02-16T11:17:36.353Z,79.70
2018-02-16T11:20:05.668Z,80.59
2018-02-16T11:22:33.682Z,83.62
2018-02-16T11:25:01.367Z,84.23
2018-02-16T11:27:29.060Z,84.06
2018-02-16T11:29:56.791Z,83.63
2018-02-16T11:32:24.492Z,81.57
2018-02-16T11:34:52.248Z,80.75
2018-02-16T11:37:19.964Z,83.62
2018-02-16T11:39:47.709Z,84.22
2018-02-16T11:42:15.515Z,83.91
2018-02-16T11:44:43.289Z,84.41
2018-02-16T11:47:11.026Z,85.25
2018-02-16T11:49:38.838Z,86.02
2018-02-16T11:52:06.562Z,85.82
2018-02-16T11:54:34.354Z,84.16
2018-02-16T11:57:02.137Z,83.87
2018-02-16T11:59:29.821Z,83.28
2018-02-16T12:01:57.572Z,83.83
2018-02-16T12:04:25.296Z,85.12
2018-02-16T12:06:53.085Z,85.34
2018-02-16T12:09:21.201Z,85.79
2018-02-16T12:11:48.991Z,85.61
2018-02-16T12:14:16.701Z,83.93
2018-02-16T12:16:45.681Z,83.82
2018-02-16T12:19:13.414Z,83.64
2018-02-16T12:21:41.214Z,83.88
2018-02-16T12:24:09.004Z,83.68
2018-02-16T12:26:36.726Z,84.43
2018-02-16T12:29:04.482Z,84.61
2018-02-16T12:31:32.211Z,84.89
2018-02-16T12:34:00.074Z,85.84
2018-02-16T12:36:27.917Z,85.37
2018-02-16T12:38:55.646Z,85.62
2018-02-16T12:41:23.535Z,86.21
2018-02-16T12:43:51.241Z,85.84
2018-02-16T12:46:19.769Z,84.96
2018-02-16T12:48:47.545Z,84.57
2018-02-16T12:51:15.252Z,84.94
2018-02-16T12:53:42.965Z,86.26
2018-02-16T12:56:10.706Z,86.79
2018-02-16T12:58:38.440Z,86.04
2018-02-16T13:01:06.197Z,85.90
2018-02-16T13:03:33.946Z,86.32
2018-02-16T13:06:01.664Z,87.15
2018-02-16T13:08:29.436Z,85.60
2018-02-16T13:10:57.131Z,85.21
2018-02-16T13:13:24.891Z,85.35
2018-02-16T13:15:52.610Z,85.53
2018-02-16T13:18:20.388Z,85.50
2018-02-16T13:20:48.218Z,85.15
2018-02-16T13:23:16.131Z,84.70
2018-02-16T13:25:44.085Z,84.46
2018-02-16T13:28:12.190Z,86.05
2018-02-16T13:30:40.246Z,84.54
2018-02-16T13:33:08.338Z,84.67
2018-02-16T13:35:36.153Z,84.17
2018-02-16T13:38:04.263Z,83.87
2018-02-16T13:40:32.313Z,83.42
2018-02-16T13:43:00.160Z,82.83
2018-02-16T13:45:28.817Z,82.62
2018-02-16T13:47:57.068Z,82.17
2018-02-16T13:50:25.220Z,81.22
2018-02-16T13:52:54.005Z,83.04
2018-02-16T13:55:21.968Z,84.68
2018-02-16T13:57:50.079Z,83.51
2018-02-16T14:00:17.773Z,83.91
2018-02-16T14:02:45.570Z,85.12
2018-02-16T14:05:13.581Z,84.50
2018-02-16T14:07:41.606Z,83.86
2018-02-16T14:10:09.323Z,85.82
2018-02-16T14:12:37.024Z,87.30
2018-02-16T14:15:05.144Z,87.37
2018-02-16T14:17:32.917Z,87.02
2018-02-16T14:20:00.634Z,85.35
2018-02-16T14:22:28.375Z,84.81
2018-02-16T14:24:57.161Z,83.72
2018-02-16T14:27:24.925Z,83.77
2018-02-16T14:29:52.616Z,84.12
2018-02-16T14:32:20.382Z,84.07
2018-02-16T14:34:48.201Z,84.25
2018-02-16T14:37:15.914Z,84.60
2018-02-16T14:39:43.919Z,84.77
2018-02-16T14:42:11.872Z,84.52
2018-02-16T14:44:40.059Z,84.20
2018-02-16T14:47:08.022Z,84.22
2018-02-16T14:49:36.186Z,84.04
2018-02-16T14:52:03.989Z,84.36
2018-02-16T14:54:32.005Z,83.81
2018-02-16T14:57:02.680Z,83.25
2018-02-16T14:59:30.787Z,83.16
2018-02-16T15:01:58.781Z,82.89
2018-02-16T15:04:26.736Z,84.98
2018-02-16T15:06:54.790Z,85.90
2018-02-16T15:09:23.440Z,84.17
2018-02-16T15:11:51.360Z,84.16
2018-02-16T15:14:19.305Z,85.77
2018-02-16T15:16:48.374Z,86.81
2018-02-16T15:19:16.123Z,87.26
2018-02-16T15:21:43.877Z,86.37
2018-02-16T15:24:11.878Z,86.46
2018-02-16T15:26:39.951Z,86.15
2018-02-16T15:29:08.261Z,86.02
2018-02-16T15:31:36.101Z,86.83
2018-02-16T15:34:04.224Z,86.57
2018-02-16T15:36:33.091Z,86.02
2018-02-16T15:39:01.189Z,86.63
2018-02-16T15:41:28.967Z,86.96
2018-02-16T15:43:56.947Z,87.01
2018-02-16T15:46:25.022Z,86.56
2018-02-16T15:48:53.928Z,86.59
2018-02-16T15:51:22.001Z,87.31
2018-02-16T15:53:49.940Z,87.45
2018-02-16T15:56:18.141Z,87.58
2018-02-16T15:58:45.998Z,87.75
2018-02-16T16:01:14.248Z,90.03
2018-02-16T16:03:42.231Z,89.96
2018-02-16T16:06:10.924Z,88.41
2018-02-16T16:08:39.017Z,88.54
2018-02-16T16:11:07.458Z,88.61
2018-02-16T16:13:35.274Z,88.57
2018-02-16T16:16:04.572Z,89.41
2018-02-16T16:18:33.149Z,90.69
2018-02-16T16:21:02.086Z,91.01
2018-02-16T16:23:30.211Z,89.96
2018-02-16T16:25:58.236Z,89.21
2018-02-16T16:28:26.198Z,89.70
2018-02-16T16:30:54.226Z,91.12
2018-02-16T16:33:22.410Z,90.32
2018-02-16T16:35:51.646Z,90.27
2018-02-16T16:38:19.975Z,90.05
2018-02-16T16:40:49.277Z,90.01
2018-02-16T16:43:17.653Z,90.34
2018-02-16T16:45:45.624Z,90.63
2018-02-16T16:48:13.750Z,90.82
2018-02-16T16:50:42.086Z,91.13
2018-02-16T16:53:11.068Z,90.35
2018-02-16T16:55:40.571Z,90.15
2018-02-16T16:58:09.734Z,89.97
2018-02-16T17:00:37.992Z,90.12
2018-02-16T17:03:05.816Z,90.68
2018-02-16T17:05:33.823Z,92.33
2018-02-16T17:08:02.053Z,92.10
2018-02-16T17:10:30.131Z,90.95
2018-02-16T17:12:58.002Z,90.69
2018-02-16T17:15:26.274Z,90.31
2018-02-16T17:17:54.450Z,90.60
2018-02-16T17:20:22.340Z,90.89
2018-02-16T17:22:50.329Z,91.19
2018-02-16T17:25:18.495Z,91.40
2018-02-16T17:27:46.623Z,91.09
2018-02-16T17:30:14.478Z,91.16
2018-02-16T17:32:42.471Z,91.55
2018-02-16T17:35:10.556Z,92.77
2018-02-16T17:37:39.304Z,92.46
2018-02-16T17:40:07.669Z,92.38
2018-02-16T17:42:39.261Z,91.63
2018-02-16T17:45:08.129Z,91.39
2018-02-16T17:47:36.442Z,91.86
2018-02-16T17:50:04.753Z,92.14
2018-02-16T17:52:32.989Z,92.46
2018-02-16T17:55:00.931Z,92.46
2018-02-16T17:57:29.155Z,93.29
2018-02-16T17:59:59.133Z,93.06
2018-02-16T18:02:27.180Z,92.46
2018-02-16T18:04:56.871Z,92.51
2018-02-16T18:07:24.737Z,92.37
2018-02-16T18:09:52.767Z,93.30
2018-02-16T18:12:21.876Z,93.58
2018-02-16T18:14:50.338Z,92.97
2018-02-16T18:17:19.643Z,92.55
2018-02-16T18:19:48.288Z,92.31
2018-02-16T18:22:16.590Z,92.38
2018-02-16T18:24:46.395Z,92.24
2018-02-16T18:27:15.320Z,92.66
2018-02-16T18:29:44.697Z,92.83
2018-02-16T18:32:13.734Z,92.93
2018-02-16T18:34:42.345Z,92.85
2018-02-16T18:37:11.258Z,92.90
2018-02-16T18:39:39.951Z,92.97
2018-02-16T18:42:08.965Z,93.37
2018-02-16T18:44:37.912Z,93.53
2018-02-16T18:47:06.646Z,93.52
2018-02-16T18:49:35.833Z,93.65
2018-02-16T18:52:07.734Z,93.02
2018-02-16T18:54:36.483Z,93.23
2018-02-16T18:57:06.583Z,92.48
2018-02-16T18:59:35.604Z,92.70
2018-02-16T19:02:04.680Z,93.07
2018-02-16T19:04:32.797Z,93.43
2018-02-16T19:07:03.408Z,93.35
2018-02-16T19:09:33.443Z,93.15
2018-02-16T19:12:07.505Z,92.55
2018-02-16T19:14:36.687Z,92.90
2018-02-16T19:17:05.992Z,93.04
2018-02-16T19:19:34.719Z,92.78
2018-02-16T19:22:02.939Z,92.87
2018-02-16T19:24:32.084Z,92.89
2018-02-16T19:27:01.129Z,94.74
2018-02-16T19:29:30.268Z,95.89
2018-02-16T19:31:58.454Z,95.77
2018-02-16T19:34:26.627Z,94.70
2018-02-16T19:36:54.472Z,93.87
2018-02-16T19:39:23.803Z,93.38
2018-02-16T19:41:53.041Z,93.04
2018-02-16T19:44:21.387Z,92.75
2018-02-16T19:46:49.530Z,93.06
2018-02-16T19:49:18.806Z,93.07
2018-02-16T19:51:46.860Z,93.05
2018-02-16T19:54:15.946Z,93.49
2018-02-16T19:56:44.124Z,93.67
2018-02-16T19:59:12.668Z,94.41
2018-02-16T20:01:41.390Z,94.28
2018-02-16T20:04:10.458Z,93.25
2018-02-16T20:06:38.835Z,93.40
2018-02-16T20:09:08.515Z,93.47
2018-02-16T20:11:37.215Z,93.32
2018-02-16T20:14:05.310Z,92.71
2018-02-16T20:16:33.816Z,92.68
2018-02-16T20:19:01.835Z,92.83
2018-02-16T20:21:30.030Z,93.63
2018-02-16T20:23:58.200Z,94.00
2018-02-16T20:26:26.274Z,93.80
2018-02-16T20:28:54.306Z,93.55
2018-02-16T20:31:23.649Z,94.42
2018-02-16T20:33:51.923Z,94.19
2018-02-16T20:36:21.035Z,93.74
2018-02-16T20:38:48.991Z,93.54
2018-02-16T20:41:17.067Z,93.47
2018-02-16T20:43:45.154Z,93.61
2018-02-16T20:46:13.204Z,93.90
2018-02-16T20:48:42.003Z,94.15
2018-02-16T20:51:09.927Z,94.87
2018-02-16T20:53:37.893Z,95.57
2018-02-16T20:56:07.953Z,95.63
2018-02-16T20:58:35.955Z,95.10
2018-02-16T21:01:04.297Z,94.82
2018-02-16T21:03:33.226Z,95.10
2018-02-16T21:06:01.095Z,95.49
2018-02-16T21:08:29.126Z,95.06
2018-02-16T21:10:57.036Z,94.67
2018-02-16T21:13:25.889Z,94.67
2018-02-16T21:15:54.170Z,94.83
2018-02-16T21:18:22.892Z,95.08
2018-02-16T21:20:50.922Z,95.01
2018-02-16T21:23:19.216Z,94.70
2018-02-16T21:25:47.145Z,94.26
2018-02-16T21:28:15.543Z,94.11
2018-02-16T21:30:44.824Z,93.66
2018-02-16T21:33:13.056Z,93.07
2018-02-16T21:35:44.372Z,93.46
2018-02-16T21:38:12.994Z,94.00
2018-02-16T21:40:40.935Z,94.48
2018-02-16T21:43:09.390Z,93.82
2018-02-16T21:45:37.640Z,93.81
2018-02-16T21:48:05.653Z,93.88
2018-02-16T21:50:35.182Z,93.83
2018-02-16T21:53:03.309Z,93.82
2018-02-16T21:55:31.323Z,94.04
2018-02-16T21:57:59.371Z,93.89
2018-02-16T22:00:28.349Z,93.87
2018-02-16T22:02:56.444Z,93.83
2018-02-16T22:05:24.513Z,93.82
2018-02-16T22:07:52.594Z,93.97
2018-02-16T22:10:21.095Z,94.70
2018-02-16T22:12:49.064Z,95.09
2018-02-16T22:15:17.220Z,95.34
2018-02-16T22:17:45.269Z,95.70
2018-02-16T22:20:13.248Z,95.85
2018-02-16T22:22:41.258Z,95.48
2018-02-16T22:25:09.449Z,95.04
2018-02-16T22:27:39.002Z,95.19
2018-02-16T22:30:07.071Z,95.20
2018-02-16T22:32:34.856Z,95.34
2018-02-16T22:35:02.909Z,95.28
2018-02-16T22:37:30.909Z,94.71
2018-02-16T22:39:59.698Z,94.32
2018-02-16T22:42:27.651Z,94.18
2018-02-16T22:44:55.711Z,94.16
2018-02-16T22:47:23.524Z,94.51
2018-02-16T22:49:52.394Z,94.58
2018-02-16T22:52:20.435Z,94.65
2018-02-16T22:54:48.379Z,94.80
2018-02-16T22:57:16.442Z,95.73
2018-02-16T22:59:44.290Z,95.79
2018-02-16T23:02:12.179Z,95.31
2018-02-16T23:04:40.047Z,94.69
2018-02-16T23:07:08.069Z,94.55
2018-02-16T23:09:35.978Z,94.67
2018-02-16T23:12:03.894Z,94.72
2018-02-16T23:14:32.487Z,94.62
2018-02-16T23:17:00.415Z,94.55
2018-02-16T23:19:28.331Z,94.70
2018-02-16T23:21:56.251Z,94.86
2018-02-16T23:24:24.337Z,95.20
2018-02-16T23:26:52.404Z,94.86
2018-02-16T23:29:20.608Z,94.51
2018-02-16T23:31:48.774Z,94.49
2018-02-16T23:34:16.821Z,95.13
2018-02-16T23:39:19.139Z,95.38
2018-02-16T23:41:46.931Z,95.17
2018-02-16T23:44:14.919Z,95.14
2018-02-16T23:46:42.985Z,94.96
2018-02-16T23:49:12.752Z,94.90
2018-02-16T23:51:41.872Z,95.13
2018-02-16T23:54:09.874Z,94.84
2018-02-16T23:56:37.938Z,94.62
2018-02-16T23:59:07.098Z,94.23
